sensor_id;sensor_type;location;lat;lon;timestamp;temperature;humidity
65058;HTU21D;51644;51.068;5.860;2023-02-22T00:00:56;8.13;91.52
65058;HTU21D;51644;51.068;5.860;2023-02-22T00:01:59;8.14;91.62
65058;HTU21D;51644;51.068;5.860;2023-02-22T00:03:26;8.13;91.43
65058;HTU21D;51644;51.068;5.860;2023-02-22T00:04:25;8.06;91.46
65058;HTU21D;51644;51.068;5.860;2023-02-22T00:05:27;8.08;91.66
65058;HTU21D;51644;51.068;5.860;2023-02-22T00:06:28;8.03;91.79
65058;HTU21D;51644;51.068;5.860;2023-02-22T00:07:28;8.04;91.82
65058;HTU21D;51644;51.068;5.860;2023-02-22T00:08:30;8.03;91.86
65058;HTU21D;51644;51.068;5.860;2023-02-22T00:09:28;8.07;91.89
65058;HTU21D;51644;51.068;5.860;2023-02-22T00:10:28;8.03;91.85
65058;HTU21D;51644;51.068;5.860;2023-02-22T00:11:27;8.05;91.96
65058;HTU21D;51644;51.068;5.860;2023-02-22T00:12:25;8.06;91.91
65058;HTU21D;51644;51.068;5.860;2023-02-22T00:13:28;8.06;91.98
65058;HTU21D;51644;51.068;5.860;2023-02-22T00:14:26;8.07;92.01
65058;HTU21D;51644;51.068;5.860;2023-02-22T00:15:25;8.09;92.05
65058;HTU21D;51644;51.068;5.860;2023-02-22T00:16:26;8.11;92.05
65058;HTU21D;51644;51.068;5.860;2023-02-22T00:17:25;8.13;92.01
65058;HTU21D;51644;51.068;5.860;2023-02-22T00:18:24;8.13;91.97
65058;HTU21D;51644;51.068;5.860;2023-02-22T00:19:26;8.12;91.85
65058;HTU21D;51644;51.068;5.860;2023-02-22T00:20:27;8.08;92.00
65058;HTU21D;51644;51.068;5.860;2023-02-22T00:21:26;8.09;91.98
65058;HTU21D;51644;51.068;5.860;2023-02-22T00:22:24;8.09;92.00
65058;HTU21D;51644;51.068;5.860;2023-02-22T00:23:23;8.11;92.06
65058;HTU21D;51644;51.068;5.860;2023-02-22T00:24:23;8.14;92.08
65058;HTU21D;51644;51.068;5.860;2023-02-22T00:25:23;8.15;91.99
65058;HTU21D;51644;51.068;5.860;2023-02-22T00:26:22;8.15;92.03
65058;HTU21D;51644;51.068;5.860;2023-02-22T00:27:20;8.16;92.07
65058;HTU21D;51644;51.068;5.860;2023-02-22T00:28:21;8.19;92.09
65058;HTU21D;51644;51.068;5.860;2023-02-22T00:29:24;8.21;92.01
65058;HTU21D;51644;51.068;5.860;2023-02-22T00:30:25;8.24;91.94
65058;HTU21D;51644;51.068;5.860;2023-02-22T00:31:25;8.26;91.80
65058;HTU21D;51644;51.068;5.860;2023-02-22T00:32:23;8.24;91.76
65058;HTU21D;51644;51.068;5.860;2023-02-22T00:33:25;8.27;91.83
65058;HTU21D;51644;51.068;5.860;2023-02-22T00:34:23;8.27;91.89
65058;HTU21D;51644;51.068;5.860;2023-02-22T00:35:29;8.29;91.84
65058;HTU21D;51644;51.068;5.860;2023-02-22T00:36:29;8.33;91.69
65058;HTU21D;51644;51.068;5.860;2023-02-22T00:37:28;8.37;91.55
65058;HTU21D;51644;51.068;5.860;2023-02-22T00:38:28;8.41;91.29
65058;HTU21D;51644;51.068;5.860;2023-02-22T00:39:27;8.43;91.13
65058;HTU21D;51644;51.068;5.860;2023-02-22T00:40:29;8.44;91.09
65058;HTU21D;51644;51.068;5.860;2023-02-22T00:41:28;8.48;91.02
65058;HTU21D;51644;51.068;5.860;2023-02-22T00:42:26;8.48;90.84
65058;HTU21D;51644;51.068;5.860;2023-02-22T00:43:25;8.47;90.82
65058;HTU21D;51644;51.068;5.860;2023-02-22T00:44:24;8.48;90.83
65058;HTU21D;51644;51.068;5.860;2023-02-22T00:45:25;8.48;90.82
65058;HTU21D;51644;51.068;5.860;2023-02-22T00:46:23;8.50;90.82
65058;HTU21D;51644;51.068;5.860;2023-02-22T00:47:24;8.51;90.67
65058;HTU21D;51644;51.068;5.860;2023-02-22T00:48:24;8.56;90.50
65058;HTU21D;51644;51.068;5.860;2023-02-22T00:49:23;8.56;90.38
65058;HTU21D;51644;51.068;5.860;2023-02-22T00:50:25;8.58;90.26
65058;HTU21D;51644;51.068;5.860;2023-02-22T00:51:25;8.58;90.08
65058;HTU21D;51644;51.068;5.860;2023-02-22T00:52:24;8.59;89.98
65058;HTU21D;51644;51.068;5.860;2023-02-22T00:53:24;8.61;89.86
65058;HTU21D;51644;51.068;5.860;2023-02-22T00:54:23;8.59;89.74
65058;HTU21D;51644;51.068;5.860;2023-02-22T00:55:25;8.59;89.70
65058;HTU21D;51644;51.068;5.860;2023-02-22T00:56:24;8.58;89.66
65058;HTU21D;51644;51.068;5.860;2023-02-22T00:57:23;8.57;89.52
65058;HTU21D;51644;51.068;5.860;2023-02-22T00:58:22;8.57;89.44
65058;HTU21D;51644;51.068;5.860;2023-02-22T00:59:21;8.57;89.31
65058;HTU21D;51644;51.068;5.860;2023-02-22T01:00:31;8.53;89.31
65058;HTU21D;51644;51.068;5.860;2023-02-22T01:01:31;8.46;89.55
65058;HTU21D;51644;51.068;5.860;2023-02-22T01:02:29;8.46;89.67
65058;HTU21D;51644;51.068;5.860;2023-02-22T01:03:28;8.44;89.79
65058;HTU21D;51644;51.068;5.860;2023-02-22T01:04:28;8.39;89.92
65058;HTU21D;51644;51.068;5.860;2023-02-22T01:05:29;8.35;90.05
65058;HTU21D;51644;51.068;5.860;2023-02-22T01:06:28;8.32;90.31
65058;HTU21D;51644;51.068;5.860;2023-02-22T01:07:29;8.32;90.51
65058;HTU21D;51644;51.068;5.860;2023-02-22T01:08:28;8.34;90.63
65058;HTU21D;51644;51.068;5.860;2023-02-22T01:09:29;8.37;90.66
65058;HTU21D;51644;51.068;5.860;2023-02-22T01:10:29;8.39;90.57
65058;HTU21D;51644;51.068;5.860;2023-02-22T01:11:28;8.42;90.57
65058;HTU21D;51644;51.068;5.860;2023-02-22T01:12:29;8.46;90.51
65058;HTU21D;51644;51.068;5.860;2023-02-22T01:13:28;8.49;90.40
65058;HTU21D;51644;51.068;5.860;2023-02-22T01:14:27;8.52;90.24
65058;HTU21D;51644;51.068;5.860;2023-02-22T01:15:28;8.56;90.08
65058;HTU21D;51644;51.068;5.860;2023-02-22T01:16:28;8.57;89.95
65058;HTU21D;51644;51.068;5.860;2023-02-22T01:17:26;8.59;89.83
65058;HTU21D;51644;51.068;5.860;2023-02-22T01:18:25;8.59;89.62
65058;HTU21D;51644;51.068;5.860;2023-02-22T01:19:24;8.59;89.61
65058;HTU21D;51644;51.068;5.860;2023-02-22T01:20:23;8.58;89.64
65058;HTU21D;51644;51.068;5.860;2023-02-22T01:21:23;8.58;89.71
65058;HTU21D;51644;51.068;5.860;2023-02-22T01:22:22;8.58;89.78
65058;HTU21D;51644;51.068;5.860;2023-02-22T01:23:21;8.58;89.85
65058;HTU21D;51644;51.068;5.860;2023-02-22T01:24:20;8.59;89.86
65058;HTU21D;51644;51.068;5.860;2023-02-22T01:25:21;8.58;89.90
65058;HTU21D;51644;51.068;5.860;2023-02-22T01:26:20;8.57;89.87
65058;HTU21D;51644;51.068;5.860;2023-02-22T01:27:19;8.56;89.89
65058;HTU21D;51644;51.068;5.860;2023-02-22T01:28:17;8.56;89.97
65058;HTU21D;51644;51.068;5.860;2023-02-22T01:29:18;8.56;89.90
65058;HTU21D;51644;51.068;5.860;2023-02-22T01:30:25;8.58;89.83
65058;HTU21D;51644;51.068;5.860;2023-02-22T01:31:24;8.59;89.81
65058;HTU21D;51644;51.068;5.860;2023-02-22T01:32:23;8.58;89.57
65058;HTU21D;51644;51.068;5.860;2023-02-22T01:33:21;8.55;89.70
65058;HTU21D;51644;51.068;5.860;2023-02-22T01:34:22;8.51;89.62
65058;HTU21D;51644;51.068;5.860;2023-02-22T01:35:25;8.47;89.67
65058;HTU21D;51644;51.068;5.860;2023-02-22T01:36:25;8.42;89.88
65058;HTU21D;51644;51.068;5.860;2023-02-22T01:37:26;8.34;90.07
65058;HTU21D;51644;51.068;5.860;2023-02-22T01:38:25;8.31;90.31
65058;HTU21D;51644;51.068;5.860;2023-02-22T01:39:24;8.29;90.37
65058;HTU21D;51644;51.068;5.860;2023-02-22T01:40:30;8.24;90.56
65058;HTU21D;51644;51.068;5.860;2023-02-22T01:41:29;8.21;90.65
65058;HTU21D;51644;51.068;5.860;2023-02-22T01:42:27;8.22;90.79
65058;HTU21D;51644;51.068;5.860;2023-02-22T01:43:29;8.18;90.89
65058;HTU21D;51644;51.068;5.860;2023-02-22T01:44:34;8.18;91.05
65058;HTU21D;51644;51.068;5.860;2023-02-22T01:45:37;8.12;91.15
65058;HTU21D;51644;51.068;5.860;2023-02-22T01:46:37;8.13;91.21
65058;HTU21D;51644;51.068;5.860;2023-02-22T01:47:37;8.11;91.17
65058;HTU21D;51644;51.068;5.860;2023-02-22T01:48:44;8.09;91.23
65058;HTU21D;51644;51.068;5.860;2023-02-22T01:49:48;8.06;91.35
65058;HTU21D;51644;51.068;5.860;2023-02-22T01:51:14;8.08;91.47
65058;HTU21D;51644;51.068;5.860;2023-02-22T01:52:18;8.12;91.50
65058;HTU21D;51644;51.068;5.860;2023-02-22T01:53:24;8.17;91.43
65058;HTU21D;51644;51.068;5.860;2023-02-22T01:54:33;8.21;91.25
65058;HTU21D;51644;51.068;5.860;2023-02-22T01:55:34;8.21;91.08
65058;HTU21D;51644;51.068;5.860;2023-02-22T01:56:37;8.26;90.89
65058;HTU21D;51644;51.068;5.860;2023-02-22T01:57:37;8.30;90.69
65058;HTU21D;51644;51.068;5.860;2023-02-22T01:58:52;8.32;90.45
65058;HTU21D;51644;51.068;5.860;2023-02-22T01:59:57;8.35;90.21
65058;HTU21D;51644;51.068;5.860;2023-02-22T02:00:57;8.38;90.03
65058;HTU21D;51644;51.068;5.860;2023-02-22T02:01:56;8.43;89.91
65058;HTU21D;51644;51.068;5.860;2023-02-22T02:03:04;8.42;89.79
65058;HTU21D;51644;51.068;5.860;2023-02-22T02:04:11;8.43;89.66
65058;HTU21D;51644;51.068;5.860;2023-02-22T02:05:11;8.42;89.60
65058;HTU21D;51644;51.068;5.860;2023-02-22T02:06:13;8.42;89.56
65058;HTU21D;51644;51.068;5.860;2023-02-22T02:07:14;8.39;89.54
65058;HTU21D;51644;51.068;5.860;2023-02-22T02:08:35;8.33;89.57
65058;HTU21D;51644;51.068;5.860;2023-02-22T02:09:36;8.30;89.78
65058;HTU21D;51644;51.068;5.860;2023-02-22T02:10:38;8.24;89.93
65058;HTU21D;51644;51.068;5.860;2023-02-22T02:11:40;8.21;90.15
65058;HTU21D;51644;51.068;5.860;2023-02-22T02:12:43;8.18;90.24
65058;HTU21D;51644;51.068;5.860;2023-02-22T02:13:42;8.18;90.26
65058;HTU21D;51644;51.068;5.860;2023-02-22T02:14:41;8.16;90.30
65058;HTU21D;51644;51.068;5.860;2023-02-22T02:15:41;8.12;90.50
65058;HTU21D;51644;51.068;5.860;2023-02-22T02:16:43;8.09;90.51
65058;HTU21D;51644;51.068;5.860;2023-02-22T02:17:43;8.07;90.60
65058;HTU21D;51644;51.068;5.860;2023-02-22T02:18:42;8.05;90.79
65058;HTU21D;51644;51.068;5.860;2023-02-22T02:22:40;8.05;90.91
65058;HTU21D;51644;51.068;5.860;2023-02-22T02:24:21;8.04;90.89
65058;HTU21D;51644;51.068;5.860;2023-02-22T02:27:21;8.00;90.94
65058;HTU21D;51644;51.068;5.860;2023-02-22T02:30:01;7.96;91.11
65058;HTU21D;51644;51.068;5.860;2023-02-22T02:33:43;7.88;91.11
65058;HTU21D;51644;51.068;5.860;2023-02-22T02:35:03;7.87;91.22
65058;HTU21D;51644;51.068;5.860;2023-02-22T02:36:09;7.86;91.22
65058;HTU21D;51644;51.068;5.860;2023-02-22T02:37:34;7.85;91.28
65058;HTU21D;51644;51.068;5.860;2023-02-22T02:39:18;7.85;91.27
65058;HTU21D;51644;51.068;5.860;2023-02-22T02:40:18;7.83;91.40
65058;HTU21D;51644;51.068;5.860;2023-02-22T02:41:26;7.83;91.46
65058;HTU21D;51644;51.068;5.860;2023-02-22T02:42:37;7.87;91.47
65058;HTU21D;51644;51.068;5.860;2023-02-22T02:45:18;7.90;91.34
65058;HTU21D;51644;51.068;5.860;2023-02-22T02:47:54;7.94;91.12
65058;HTU21D;51644;51.068;5.860;2023-02-22T02:49:11;7.93;90.98
65058;HTU21D;51644;51.068;5.860;2023-02-22T02:50:21;7.89;90.93
65058;HTU21D;51644;51.068;5.860;2023-02-22T02:51:22;7.87;90.97
65058;HTU21D;51644;51.068;5.860;2023-02-22T02:52:24;7.86;91.01
65058;HTU21D;51644;51.068;5.860;2023-02-22T02:53:31;7.83;90.98
65058;HTU21D;51644;51.068;5.860;2023-02-22T02:54:33;7.84;90.98
65058;HTU21D;51644;51.068;5.860;2023-02-22T02:55:36;7.82;91.05
65058;HTU21D;51644;51.068;5.860;2023-02-22T02:56:34;7.78;91.15
65058;HTU21D;51644;51.068;5.860;2023-02-22T02:57:33;7.81;91.19
65058;HTU21D;51644;51.068;5.860;2023-02-22T02:58:32;7.81;91.21
65058;HTU21D;51644;51.068;5.860;2023-02-22T02:59:36;7.81;91.26
65058;HTU21D;51644;51.068;5.860;2023-02-22T03:00:39;7.77;91.37
65058;HTU21D;51644;51.068;5.860;2023-02-22T03:05:41;7.72;91.55
65058;HTU21D;51644;51.068;5.860;2023-02-22T03:08:00;7.71;91.47
65058;HTU21D;51644;51.068;5.860;2023-02-22T03:10:58;7.73;91.69
65058;HTU21D;51644;51.068;5.860;2023-02-22T03:12:13;7.76;91.69
65058;HTU21D;51644;51.068;5.860;2023-02-22T03:15:21;7.78;91.55
65058;HTU21D;51644;51.068;5.860;2023-02-22T03:17:16;7.75;91.37
65058;HTU21D;51644;51.068;5.860;2023-02-22T03:19:08;7.71;91.33
65058;HTU21D;51644;51.068;5.860;2023-02-22T03:23:40;7.64;91.59
65058;HTU21D;51644;51.068;5.860;2023-02-22T03:24:55;7.64;91.59
65058;HTU21D;51644;51.068;5.860;2023-02-22T03:26:02;7.63;91.57
65058;HTU21D;51644;51.068;5.860;2023-02-22T03:27:13;7.65;91.57
65058;HTU21D;51644;51.068;5.860;2023-02-22T03:28:23;7.67;91.50
65058;HTU21D;51644;51.068;5.860;2023-02-22T03:29:26;7.67;91.43
65058;HTU21D;51644;51.068;5.860;2023-02-22T03:30:45;7.69;91.31
65058;HTU21D;51644;51.068;5.860;2023-02-22T03:31:51;7.70;91.29
65058;HTU21D;51644;51.068;5.860;2023-02-22T03:33:04;7.69;91.24
65058;HTU21D;51644;51.068;5.860;2023-02-22T03:34:20;7.70;91.14
65058;HTU21D;51644;51.068;5.860;2023-02-22T03:35:24;7.63;91.12
65058;HTU21D;51644;51.068;5.860;2023-02-22T03:36:34;7.61;91.28
65058;HTU21D;51644;51.068;5.860;2023-02-22T03:37:44;7.58;91.24
65058;HTU21D;51644;51.068;5.860;2023-02-22T03:38:45;7.56;91.39
65058;HTU21D;51644;51.068;5.860;2023-02-22T03:39:54;7.49;91.36
65058;HTU21D;51644;51.068;5.860;2023-02-22T03:40:58;7.50;91.47
65058;HTU21D;51644;51.068;5.860;2023-02-22T03:42:11;7.48;91.48
65058;HTU21D;51644;51.068;5.860;2023-02-22T03:43:17;7.46;91.60
65058;HTU21D;51644;51.068;5.860;2023-02-22T03:44:24;7.46;91.43
65058;HTU21D;51644;51.068;5.860;2023-02-22T03:45:27;7.43;91.60
65058;HTU21D;51644;51.068;5.860;2023-02-22T03:46:27;7.42;91.63
65058;HTU21D;51644;51.068;5.860;2023-02-22T03:47:37;7.38;91.66
65058;HTU21D;51644;51.068;5.860;2023-02-22T03:48:59;7.37;91.77
65058;HTU21D;51644;51.068;5.860;2023-02-22T03:51:17;7.38;91.73
65058;HTU21D;51644;51.068;5.860;2023-02-22T03:52:20;7.39;91.70
65058;HTU21D;51644;51.068;5.860;2023-02-22T03:53:21;7.39;91.68
65058;HTU21D;51644;51.068;5.860;2023-02-22T03:54:21;7.40;91.72
65058;HTU21D;51644;51.068;5.860;2023-02-22T03:55:20;7.40;91.67
65058;HTU21D;51644;51.068;5.860;2023-02-22T03:56:29;7.39;91.66
65058;HTU21D;51644;51.068;5.860;2023-02-22T03:57:37;7.38;91.57
65058;HTU21D;51644;51.068;5.860;2023-02-22T03:58:40;7.32;91.69
65058;HTU21D;51644;51.068;5.860;2023-02-22T03:59:42;7.32;91.76
65058;HTU21D;51644;51.068;5.860;2023-02-22T04:00:40;7.32;91.73
65058;HTU21D;51644;51.068;5.860;2023-02-22T04:01:42;7.33;91.85
65058;HTU21D;51644;51.068;5.860;2023-02-22T04:02:41;7.33;91.77
65058;HTU21D;51644;51.068;5.860;2023-02-22T04:03:43;7.35;91.66
65058;HTU21D;51644;51.068;5.860;2023-02-22T04:04:42;7.34;91.72
65058;HTU21D;51644;51.068;5.860;2023-02-22T04:05:40;7.35;91.66
65058;HTU21D;51644;51.068;5.860;2023-02-22T04:06:39;7.33;91.50
65058;HTU21D;51644;51.068;5.860;2023-02-22T04:07:38;7.33;91.50
65058;HTU21D;51644;51.068;5.860;2023-02-22T04:08:37;7.31;91.43
65058;HTU21D;51644;51.068;5.860;2023-02-22T04:09:36;7.31;91.51
65058;HTU21D;51644;51.068;5.860;2023-02-22T04:10:34;7.32;91.58
65058;HTU21D;51644;51.068;5.860;2023-02-22T04:11:35;7.34;91.50
65058;HTU21D;51644;51.068;5.860;2023-02-22T04:12:37;7.37;91.55
65058;HTU21D;51644;51.068;5.860;2023-02-22T04:13:37;7.40;91.44
65058;HTU21D;51644;51.068;5.860;2023-02-22T04:14:36;7.42;91.30
65058;HTU21D;51644;51.068;5.860;2023-02-22T04:15:35;7.43;91.18
65058;HTU21D;51644;51.068;5.860;2023-02-22T04:16:36;7.44;90.98
65058;HTU21D;51644;51.068;5.860;2023-02-22T04:17:39;7.41;90.83
65058;HTU21D;51644;51.068;5.860;2023-02-22T04:18:37;7.37;90.87
65058;HTU21D;51644;51.068;5.860;2023-02-22T04:19:37;7.34;91.05
65058;HTU21D;51644;51.068;5.860;2023-02-22T04:20:36;7.32;91.05
65058;HTU21D;51644;51.068;5.860;2023-02-22T04:21:40;7.28;91.06
65058;HTU21D;51644;51.068;5.860;2023-02-22T04:22:45;7.28;91.17
65058;HTU21D;51644;51.068;5.860;2023-02-22T04:23:44;7.28;91.14
65058;HTU21D;51644;51.068;5.860;2023-02-22T04:24:44;7.27;91.18
65058;HTU21D;51644;51.068;5.860;2023-02-22T04:25:43;7.27;91.31
65058;HTU21D;51644;51.068;5.860;2023-02-22T04:26:46;7.27;91.26
65058;HTU21D;51644;51.068;5.860;2023-02-22T04:27:45;7.26;91.37
65058;HTU21D;51644;51.068;5.860;2023-02-22T04:28:44;7.27;91.30
65058;HTU21D;51644;51.068;5.860;2023-02-22T04:29:47;7.25;91.36
65058;HTU21D;51644;51.068;5.860;2023-02-22T04:30:46;7.28;91.32
65058;HTU21D;51644;51.068;5.860;2023-02-22T04:31:47;7.29;91.31
65058;HTU21D;51644;51.068;5.860;2023-02-22T04:32:49;7.30;91.25
65058;HTU21D;51644;51.068;5.860;2023-02-22T04:33:52;7.31;91.15
65058;HTU21D;51644;51.068;5.860;2023-02-22T04:34:56;7.32;91.04
65058;HTU21D;51644;51.068;5.860;2023-02-22T04:35:54;7.31;90.98
65058;HTU21D;51644;51.068;5.860;2023-02-22T04:36:55;7.32;90.95
65058;HTU21D;51644;51.068;5.860;2023-02-22T04:37:54;7.31;90.87
65058;HTU21D;51644;51.068;5.860;2023-02-22T04:38:59;7.31;90.81
65058;HTU21D;51644;51.068;5.860;2023-02-22T04:40:04;7.30;90.90
65058;HTU21D;51644;51.068;5.860;2023-02-22T04:41:07;7.30;90.85
65058;HTU21D;51644;51.068;5.860;2023-02-22T04:42:05;7.27;90.82
65058;HTU21D;51644;51.068;5.860;2023-02-22T04:43:05;7.31;90.81
65058;HTU21D;51644;51.068;5.860;2023-02-22T04:44:03;7.29;90.76
65058;HTU21D;51644;51.068;5.860;2023-02-22T04:45:05;7.27;90.80
65058;HTU21D;51644;51.068;5.860;2023-02-22T04:46:06;7.25;90.79
65058;HTU21D;51644;51.068;5.860;2023-02-22T04:47:04;7.24;90.82
65058;HTU21D;51644;51.068;5.860;2023-02-22T04:48:03;7.23;90.85
65058;HTU21D;51644;51.068;5.860;2023-02-22T04:49:02;7.23;90.79
65058;HTU21D;51644;51.068;5.860;2023-02-22T04:50:05;7.18;90.70
65058;HTU21D;51644;51.068;5.860;2023-02-22T04:51:05;7.15;90.66
65058;HTU21D;51644;51.068;5.860;2023-02-22T04:52:04;7.12;90.81
65058;HTU21D;51644;51.068;5.860;2023-02-22T04:53:07;7.08;90.81
65058;HTU21D;51644;51.068;5.860;2023-02-22T04:54:07;7.05;90.87
65058;HTU21D;51644;51.068;5.860;2023-02-22T04:55:07;7.04;90.87
65058;HTU21D;51644;51.068;5.860;2023-02-22T04:56:07;7.02;90.76
65058;HTU21D;51644;51.068;5.860;2023-02-22T04:57:06;6.99;90.87
65058;HTU21D;51644;51.068;5.860;2023-02-22T04:58:05;6.99;90.78
65058;HTU21D;51644;51.068;5.860;2023-02-22T04:59:04;6.95;90.79
65058;HTU21D;51644;51.068;5.860;2023-02-22T05:00:04;6.90;90.65
65058;HTU21D;51644;51.068;5.860;2023-02-22T05:01:03;6.87;90.93
65058;HTU21D;51644;51.068;5.860;2023-02-22T05:02:02;6.86;90.74
65058;HTU21D;51644;51.068;5.860;2023-02-22T05:03:01;6.79;90.73
65058;HTU21D;51644;51.068;5.860;2023-02-22T05:04:04;6.75;90.79
65058;HTU21D;51644;51.068;5.860;2023-02-22T05:05:03;6.70;90.88
65058;HTU21D;51644;51.068;5.860;2023-02-22T05:06:01;6.67;90.96
65058;HTU21D;51644;51.068;5.860;2023-02-22T05:07:00;6.64;91.11
65058;HTU21D;51644;51.068;5.860;2023-02-22T05:07:59;6.59;91.12
65058;HTU21D;51644;51.068;5.860;2023-02-22T05:08:58;6.58;91.12
65058;HTU21D;51644;51.068;5.860;2023-02-22T05:09:57;6.53;91.34
65058;HTU21D;51644;51.068;5.860;2023-02-22T05:10:55;6.53;91.54
65058;HTU21D;51644;51.068;5.860;2023-02-22T05:11:54;6.55;91.63
65058;HTU21D;51644;51.068;5.860;2023-02-22T05:12:58;6.55;91.67
65058;HTU21D;51644;51.068;5.860;2023-02-22T05:13:56;6.53;91.70
65058;HTU21D;51644;51.068;5.860;2023-02-22T05:14:55;6.53;91.85
65058;HTU21D;51644;51.068;5.860;2023-02-22T05:15:58;6.54;91.72
65058;HTU21D;51644;51.068;5.860;2023-02-22T05:16:57;6.53;91.64
65058;HTU21D;51644;51.068;5.860;2023-02-22T05:17:56;6.53;91.67
65058;HTU21D;51644;51.068;5.860;2023-02-22T05:18:54;6.54;91.74
65058;HTU21D;51644;51.068;5.860;2023-02-22T05:19:53;6.55;91.80
65058;HTU21D;51644;51.068;5.860;2023-02-22T05:21:11;6.59;91.76
65058;HTU21D;51644;51.068;5.860;2023-02-22T05:22:10;6.59;91.64
65058;HTU21D;51644;51.068;5.860;2023-02-22T05:23:09;6.59;91.67
65058;HTU21D;51644;51.068;5.860;2023-02-22T05:24:08;6.58;91.56
65058;HTU21D;51644;51.068;5.860;2023-02-22T05:25:06;6.59;91.53
65058;HTU21D;51644;51.068;5.860;2023-02-22T05:26:05;6.60;91.31
65058;HTU21D;51644;51.068;5.860;2023-02-22T05:27:04;6.59;91.21
65058;HTU21D;51644;51.068;5.860;2023-02-22T05:28:07;6.54;91.08
65058;HTU21D;51644;51.068;5.860;2023-02-22T05:29:07;6.51;91.17
65058;HTU21D;51644;51.068;5.860;2023-02-22T05:30:06;6.50;91.21
65058;HTU21D;51644;51.068;5.860;2023-02-22T05:31:07;6.46;91.26
65058;HTU21D;51644;51.068;5.860;2023-02-22T05:32:09;6.44;91.31
65058;HTU21D;51644;51.068;5.860;2023-02-22T05:33:09;6.43;91.28
65058;HTU21D;51644;51.068;5.860;2023-02-22T05:34:08;6.42;91.25
65058;HTU21D;51644;51.068;5.860;2023-02-22T05:35:06;6.41;91.25
65058;HTU21D;51644;51.068;5.860;2023-02-22T05:36:06;6.39;91.21
65058;HTU21D;51644;51.068;5.860;2023-02-22T05:37:05;6.38;91.19
65058;HTU21D;51644;51.068;5.860;2023-02-22T05:38:04;6.37;91.12
65058;HTU21D;51644;51.068;5.860;2023-02-22T05:39:03;6.35;91.17
65058;HTU21D;51644;51.068;5.860;2023-02-22T05:40:03;6.34;91.19
65058;HTU21D;51644;51.068;5.860;2023-02-22T05:41:01;6.28;91.24
65058;HTU21D;51644;51.068;5.860;2023-02-22T05:42:00;6.30;91.22
65058;HTU21D;51644;51.068;5.860;2023-02-22T05:42:59;6.29;91.31
65058;HTU21D;51644;51.068;5.860;2023-02-22T05:43:59;6.30;91.15
65058;HTU21D;51644;51.068;5.860;2023-02-22T05:44:58;6.28;91.02
65058;HTU21D;51644;51.068;5.860;2023-02-22T05:45:57;6.26;91.16
65058;HTU21D;51644;51.068;5.860;2023-02-22T05:46:56;6.21;91.23
65058;HTU21D;51644;51.068;5.860;2023-02-22T05:47:54;6.24;91.27
65058;HTU21D;51644;51.068;5.860;2023-02-22T05:48:53;6.24;91.34
65058;HTU21D;51644;51.068;5.860;2023-02-22T05:49:54;6.26;91.36
65058;HTU21D;51644;51.068;5.860;2023-02-22T05:50:56;6.28;91.34
65058;HTU21D;51644;51.068;5.860;2023-02-22T05:51:55;6.29;91.24
65058;HTU21D;51644;51.068;5.860;2023-02-22T05:52:56;6.30;91.15
65058;HTU21D;51644;51.068;5.860;2023-02-22T05:53:55;6.30;91.21
65058;HTU21D;51644;51.068;5.860;2023-02-22T05:54:54;6.30;91.22
65058;HTU21D;51644;51.068;5.860;2023-02-22T05:55:52;6.34;91.19
65058;HTU21D;51644;51.068;5.860;2023-02-22T05:56:54;6.38;91.06
65058;HTU21D;51644;51.068;5.860;2023-02-22T05:57:52;6.39;91.02
65058;HTU21D;51644;51.068;5.860;2023-02-22T05:58:51;6.41;90.98
65058;HTU21D;51644;51.068;5.860;2023-02-22T05:59:50;6.43;90.82
65058;HTU21D;51644;51.068;5.860;2023-02-22T06:00:49;6.44;90.71
65058;HTU21D;51644;51.068;5.860;2023-02-22T06:01:47;6.45;90.34
65058;HTU21D;51644;51.068;5.860;2023-02-22T06:02:46;6.42;90.18
65058;HTU21D;51644;51.068;5.860;2023-02-22T06:03:49;6.41;90.04
65058;HTU21D;51644;51.068;5.860;2023-02-22T06:04:48;6.39;89.87
65058;HTU21D;51644;51.068;5.860;2023-02-22T06:05:47;6.36;89.83
65058;HTU21D;51644;51.068;5.860;2023-02-22T06:06:45;6.30;89.78
65058;HTU21D;51644;51.068;5.860;2023-02-22T06:07:44;6.29;89.91
65058;HTU21D;51644;51.068;5.860;2023-02-22T06:08:43;6.24;89.85
65058;HTU21D;51644;51.068;5.860;2023-02-22T06:09:41;6.22;89.83
65058;HTU21D;51644;51.068;5.860;2023-02-22T06:10:40;6.16;89.99
65058;HTU21D;51644;51.068;5.860;2023-02-22T06:11:38;6.14;90.15
65058;HTU21D;51644;51.068;5.860;2023-02-22T06:12:37;6.11;90.33
65058;HTU21D;51644;51.068;5.860;2023-02-22T06:13:35;6.12;90.31
65058;HTU21D;51644;51.068;5.860;2023-02-22T06:14:34;6.11;90.18
65058;HTU21D;51644;51.068;5.860;2023-02-22T06:15:33;6.09;90.31
65058;HTU21D;51644;51.068;5.860;2023-02-22T06:16:31;6.09;90.31
65058;HTU21D;51644;51.068;5.860;2023-02-22T06:17:30;6.09;90.28
65058;HTU21D;51644;51.068;5.860;2023-02-22T06:18:29;6.09;90.21
65058;HTU21D;51644;51.068;5.860;2023-02-22T06:19:30;6.08;90.25
65058;HTU21D;51644;51.068;5.860;2023-02-22T06:20:29;6.04;90.29
65058;HTU21D;51644;51.068;5.860;2023-02-22T06:21:28;6.02;90.25
65058;HTU21D;51644;51.068;5.860;2023-02-22T06:22:27;6.01;90.44
65058;HTU21D;51644;51.068;5.860;2023-02-22T06:23:26;6.01;90.48
65058;HTU21D;51644;51.068;5.860;2023-02-22T06:24:25;6.00;90.46
65058;HTU21D;51644;51.068;5.860;2023-02-22T06:25:26;6.00;90.41
65058;HTU21D;51644;51.068;5.860;2023-02-22T06:26:25;6.01;90.44
65058;HTU21D;51644;51.068;5.860;2023-02-22T06:27:24;6.02;90.45
65058;HTU21D;51644;51.068;5.860;2023-02-22T06:28:22;6.05;90.35
65058;HTU21D;51644;51.068;5.860;2023-02-22T06:29:25;6.06;90.28
65058;HTU21D;51644;51.068;5.860;2023-02-22T06:30:25;6.07;90.15
65058;HTU21D;51644;51.068;5.860;2023-02-22T06:31:24;6.09;90.05
65058;HTU21D;51644;51.068;5.860;2023-02-22T06:32:22;6.10;89.96
65058;HTU21D;51644;51.068;5.860;2023-02-22T06:33:21;6.11;89.86
65058;HTU21D;51644;51.068;5.860;2023-02-22T06:34:20;6.12;89.78
65058;HTU21D;51644;51.068;5.860;2023-02-22T06:35:19;6.13;89.66
65058;HTU21D;51644;51.068;5.860;2023-02-22T06:36:18;6.13;89.63
65058;HTU21D;51644;51.068;5.860;2023-02-22T06:37:16;6.14;89.54
65058;HTU21D;51644;51.068;5.860;2023-02-22T06:38:23;6.16;89.49
65058;HTU21D;51644;51.068;5.860;2023-02-22T06:39:22;6.19;89.37
65058;HTU21D;51644;51.068;5.860;2023-02-22T06:40:22;6.19;89.16
65058;HTU21D;51644;51.068;5.860;2023-02-22T06:41:21;6.17;89.16
65058;HTU21D;51644;51.068;5.860;2023-02-22T06:42:20;6.20;89.01
65058;HTU21D;51644;51.068;5.860;2023-02-22T06:43:18;6.21;88.84
65058;HTU21D;51644;51.068;5.860;2023-02-22T06:44:17;6.22;88.75
65058;HTU21D;51644;51.068;5.860;2023-02-22T06:45:17;6.22;88.64
65058;HTU21D;51644;51.068;5.860;2023-02-22T06:46:15;6.22;88.63
65058;HTU21D;51644;51.068;5.860;2023-02-22T06:47:14;6.22;88.65
65058;HTU21D;51644;51.068;5.860;2023-02-22T06:48:13;6.22;88.65
65058;HTU21D;51644;51.068;5.860;2023-02-22T06:49:13;6.21;88.63
65058;HTU21D;51644;51.068;5.860;2023-02-22T06:51:22;6.24;88.41
65058;HTU21D;51644;51.068;5.860;2023-02-22T06:52:21;6.25;88.38
65058;HTU21D;51644;51.068;5.860;2023-02-22T06:53:20;6.26;88.36
65058;HTU21D;51644;51.068;5.860;2023-02-22T06:54:19;6.26;88.29
65058;HTU21D;51644;51.068;5.860;2023-02-22T06:55:26;6.25;88.25
65058;HTU21D;51644;51.068;5.860;2023-02-22T06:56:25;6.22;88.35
65058;HTU21D;51644;51.068;5.860;2023-02-22T06:57:24;6.22;88.42
65058;HTU21D;51644;51.068;5.860;2023-02-22T06:58:22;6.21;88.50